createdAt,value
2019-05-23T00:00:53.874Z,10.80
2019-05-23T00:01:54.457Z,12.50
2019-05-23T00:02:54.637Z,10.70
2019-05-23T00:03:55.726Z,13.20
2019-05-23T00:04:53.911Z,10.30
2019-05-23T00:05:56.617Z,10.10
2019-05-23T00:06:58.134Z,11.40
2019-05-23T00:07:56.630Z,10.70
2019-05-23T00:08:55.613Z,9.50
2019-05-23T00:09:55.618Z,10.40
2019-05-23T00:10:58.135Z,10.20
2019-05-23T00:11:58.141Z,10.50
2019-05-23T00:12:57.151Z,10.40
2019-05-23T00:13:54.621Z,10.90
2019-05-23T00:14:57.084Z,9.50
2019-05-23T00:15:57.603Z,12.30
2019-05-23T00:16:58.634Z,11.20
2019-05-23T00:17:59.127Z,11.30
2019-05-23T00:18:56.166Z,10.00
2019-05-23T00:19:56.606Z,9.80
2019-05-23T00:20:55.647Z,12.80
2019-05-23T00:21:54.647Z,11.70
2019-05-23T00:22:57.648Z,10.80
2019-05-23T00:23:57.143Z,11.70
2019-05-23T00:25:02.145Z,11.40
2019-05-23T00:25:55.108Z,13.70
2019-05-23T00:26:56.109Z,11.20
2019-05-23T00:27:54.611Z,12.40
2019-05-23T00:29:09.093Z,12.10
2019-05-23T00:29:58.618Z,10.60
2019-05-23T00:30:56.659Z,10.70
2019-05-23T00:31:58.629Z,11.00
2019-05-23T00:32:57.086Z,11.00
2019-05-23T00:33:55.624Z,13.20
2019-05-23T00:34:55.821Z,10.30
2019-05-23T00:35:54.678Z,10.00
2019-05-23T00:36:56.588Z,10.70
2019-05-23T00:37:55.665Z,11.10
2019-05-23T00:38:56.626Z,11.50
2019-05-23T00:39:55.148Z,11.40
2019-05-23T00:40:54.591Z,9.60
2019-05-23T00:41:55.625Z,9.80
2019-05-23T00:42:54.604Z,9.90
2019-05-23T00:43:54.611Z,9.70
2019-05-23T00:44:56.172Z,9.80
2019-05-23T00:45:57.645Z,8.90
2019-05-23T00:46:54.122Z,9.20
2019-05-23T00:47:54.614Z,9.10
2019-05-23T00:48:56.644Z,8.10
2019-05-23T00:49:56.648Z,9.30
2019-05-23T00:50:55.629Z,8.70
2019-05-23T00:52:02.652Z,10.90
2019-05-23T00:52:56.251Z,10.20
2019-05-23T00:53:55.649Z,8.90
2019-05-23T00:54:55.604Z,7.90
2019-05-23T00:55:55.611Z,8.40
2019-05-23T00:56:57.639Z,8.90
2019-05-23T00:57:57.649Z,7.80
2019-05-23T00:58:55.630Z,8.00
2019-05-23T01:00:20.111Z,8.80
2019-05-23T01:00:58.612Z,7.90
2019-05-23T01:01:54.600Z,7.80
2019-05-23T01:02:53.867Z,7.50
2019-05-23T01:03:55.151Z,8.00
2019-05-23T01:05:00.585Z,9.40
2019-05-23T01:05:55.115Z,9.20
2019-05-23T01:06:57.627Z,8.60
2019-05-23T01:07:54.420Z,8.10
2019-05-23T01:08:53.647Z,8.40
2019-05-23T01:09:56.622Z,8.50
2019-05-23T01:10:54.633Z,10.30
2019-05-23T01:11:55.598Z,9.70
2019-05-23T01:12:54.645Z,8.70
2019-05-23T01:13:59.107Z,8.40
2019-05-23T01:14:59.165Z,9.80
2019-05-23T01:15:56.150Z,9.60
2019-05-23T01:16:55.644Z,8.20
2019-05-23T01:17:54.706Z,7.40
2019-05-23T01:18:55.145Z,7.30
2019-05-23T01:19:56.151Z,10.20
2019-05-23T01:20:56.651Z,7.30
2019-05-23T01:21:56.139Z,8.50
2019-05-23T01:22:57.118Z,7.10
2019-05-23T01:23:56.619Z,7.40
2019-05-23T01:24:57.129Z,8.40
2019-05-23T01:26:00.689Z,7.20
2019-05-23T01:26:58.145Z,7.60
2019-05-23T01:27:55.154Z,7.60
2019-05-23T01:28:55.647Z,8.80
2019-05-23T01:29:57.137Z,9.20
2019-05-23T01:30:57.143Z,9.60
2019-05-23T01:31:54.057Z,9.90
2019-05-23T01:32:55.647Z,9.10
2019-05-23T01:33:55.203Z,7.50
2019-05-23T01:34:56.147Z,7.60
2019-05-23T01:35:55.639Z,7.40
2019-05-23T01:36:56.136Z,8.20
2019-05-23T01:37:55.665Z,9.70
2019-05-23T01:38:59.146Z,8.80
2019-05-23T01:39:57.125Z,9.50
2019-05-23T01:40:58.166Z,7.40
2019-05-23T01:41:55.141Z,8.80
2019-05-23T01:42:55.609Z,7.60
2019-05-23T01:43:57.641Z,8.00
2019-05-23T01:44:53.535Z,9.80
2019-05-23T01:45:56.659Z,9.60
2019-05-23T01:46:55.635Z,9.50
2019-05-23T01:47:54.109Z,9.40
2019-05-23T01:49:01.638Z,9.30
2019-05-23T01:49:54.225Z,9.00
2019-05-23T01:50:54.703Z,8.80
2019-05-23T01:51:55.644Z,8.40
2019-05-23T01:52:55.144Z,9.00
2019-05-23T01:53:58.653Z,8.20
2019-05-23T01:54:55.639Z,9.20
2019-05-23T01:55:55.641Z,9.40
2019-05-23T01:56:53.509Z,11.00
2019-05-23T01:57:55.654Z,9.90
2019-05-23T01:58:58.144Z,10.40
2019-05-23T02:00:08.379Z,9.60
2019-05-23T02:00:53.934Z,13.40
2019-05-23T02:01:55.127Z,11.10
2019-05-23T02:02:56.155Z,10.30
2019-05-23T02:03:54.697Z,12.30
2019-05-23T02:04:54.112Z,10.30
2019-05-23T02:05:55.656Z,10.90
2019-05-23T02:06:54.696Z,11.70
2019-05-23T02:07:57.153Z,12.80
2019-05-23T02:08:56.143Z,10.90
2019-05-23T02:09:55.655Z,11.30
2019-05-23T02:10:54.154Z,14.50
2019-05-23T02:11:55.733Z,14.10
2019-05-23T02:12:54.652Z,13.40
2019-05-23T02:13:56.118Z,12.40
2019-05-23T02:14:54.644Z,14.90
2019-05-23T02:15:54.133Z,12.20
2019-05-23T02:16:56.137Z,13.30
2019-05-23T02:17:55.639Z,14.00
2019-05-23T02:18:55.637Z,14.50
2019-05-23T02:19:53.453Z,14.40
2019-05-23T02:20:55.659Z,13.90
2019-05-23T02:21:55.657Z,14.00
2019-05-23T02:22:54.384Z,15.50
2019-05-23T02:23:58.641Z,14.40
2019-05-23T02:24:55.138Z,16.40
2019-05-23T02:25:53.532Z,16.10
2019-05-23T02:26:53.484Z,17.90
2019-05-23T02:27:54.134Z,18.80
2019-05-23T02:28:56.111Z,18.30
2019-05-23T02:29:55.721Z,16.90
2019-05-23T02:30:56.129Z,16.10
2019-05-23T02:31:54.135Z,16.60
2019-05-23T02:32:56.144Z,15.60
2019-05-23T02:33:55.120Z,18.10
2019-05-23T02:34:55.128Z,17.50
2019-05-23T02:35:56.070Z,15.20
2019-05-23T02:36:54.115Z,18.90
2019-05-23T02:37:58.121Z,16.30
2019-05-23T02:38:56.151Z,15.40
2019-05-23T02:39:55.623Z,17.00
2019-05-23T02:40:55.141Z,16.80
2019-05-23T02:41:56.171Z,17.90
2019-05-23T02:42:53.394Z,19.10
2019-05-23T02:43:54.241Z,18.70
2019-05-23T02:44:53.605Z,19.60
2019-05-23T02:45:58.142Z,20.60
2019-05-23T02:46:53.414Z,17.90
2019-05-23T02:47:53.394Z,22.20
2019-05-23T02:48:53.391Z,21.40
2019-05-23T02:49:53.539Z,20.90
2019-05-23T02:50:58.152Z,22.20
2019-05-23T02:51:54.117Z,22.00
2019-05-23T02:52:54.632Z,16.10
2019-05-23T02:53:53.888Z,19.10
2019-05-23T02:54:54.618Z,17.70
2019-05-23T02:55:54.188Z,18.30
2019-05-23T02:56:53.387Z,17.30
2019-05-23T02:57:53.903Z,20.10
2019-05-23T02:58:55.644Z,17.40
2019-05-23T02:59:54.651Z,23.80
2019-05-23T03:00:55.366Z,19.60
2019-05-23T03:01:54.180Z,18.30
2019-05-23T03:02:56.127Z,18.10
2019-05-23T03:03:56.134Z,15.70
2019-05-23T03:04:54.235Z,18.30
2019-05-23T03:05:55.127Z,20.20
2019-05-23T03:06:54.772Z,16.70
2019-05-23T03:07:55.136Z,17.10
2019-05-23T03:08:55.144Z,15.30
2019-05-23T03:09:54.637Z,13.30
2019-05-23T03:10:54.217Z,17.40
2019-05-23T03:11:54.717Z,16.30
2019-05-23T03:12:56.144Z,18.50
2019-05-23T03:13:54.640Z,17.30
2019-05-23T03:14:53.307Z,19.50
2019-05-23T03:15:54.736Z,17.00
2019-05-23T03:16:54.147Z,22.20
2019-05-23T03:17:54.220Z,33.30
2019-05-23T03:18:54.644Z,23.30
2019-05-23T03:19:54.600Z,27.60
2019-05-23T03:20:55.221Z,27.10
2019-05-23T03:21:56.150Z,22.20
2019-05-23T03:22:53.953Z,23.60
2019-05-23T03:23:57.648Z,17.70
2019-05-23T03:24:53.968Z,20.10
2019-05-23T03:25:54.126Z,19.40
2019-05-23T03:26:56.642Z,16.40
2019-05-23T03:27:56.137Z,19.90
2019-05-23T03:28:53.341Z,20.20
2019-05-23T03:29:54.808Z,16.40
2019-05-23T03:31:21.842Z,18.00
2019-05-23T03:31:55.673Z,15.20
2019-05-23T03:32:55.146Z,15.30
2019-05-23T03:33:56.124Z,12.40
2019-05-23T03:34:54.189Z,18.90
2019-05-23T03:35:58.164Z,15.60
2019-05-23T03:36:53.241Z,16.30
2019-05-23T03:37:58.149Z,15.70
2019-05-23T03:38:54.064Z,15.50
2019-05-23T03:39:55.141Z,17.00
2019-05-23T03:40:55.984Z,13.60
2019-05-23T03:41:56.151Z,14.30
2019-05-23T03:43:02.123Z,13.90
2019-05-23T03:43:59.159Z,13.50
2019-05-23T03:44:54.659Z,12.40
2019-05-23T03:45:53.406Z,12.10
2019-05-23T03:46:53.199Z,15.40
2019-05-23T03:47:56.727Z,15.50
2019-05-23T03:48:54.660Z,17.50
2019-05-23T03:49:53.208Z,19.40
2019-05-23T03:50:58.640Z,16.00
2019-05-23T03:51:54.606Z,16.20
2019-05-23T03:52:55.133Z,15.00
2019-05-23T03:53:53.132Z,14.90
2019-05-23T03:54:53.575Z,14.90
2019-05-23T03:55:54.684Z,15.10
2019-05-23T03:56:54.638Z,16.30
2019-05-23T03:57:54.647Z,16.60
2019-05-23T03:58:53.156Z,16.50
2019-05-23T03:59:54.720Z,15.60
2019-05-23T04:00:53.658Z,17.20
2019-05-23T04:01:56.158Z,18.00
2019-05-23T04:02:53.107Z,15.00
2019-05-23T04:03:55.705Z,16.60
2019-05-23T04:04:53.520Z,16.00
2019-05-23T04:05:53.134Z,18.20
2019-05-23T04:06:53.326Z,17.20
2019-05-23T04:07:54.707Z,20.00
2019-05-23T04:08:53.143Z,24.00
2019-05-23T04:09:53.122Z,21.80
2019-05-23T04:10:53.197Z,21.80
2019-05-23T04:11:54.221Z,24.30
2019-05-23T04:12:53.169Z,22.30
2019-05-23T04:13:53.076Z,28.70
2019-05-23T04:14:53.702Z,25.40
2019-05-23T04:15:55.143Z,25.70
2019-05-23T04:16:54.152Z,22.30
2019-05-23T04:17:53.645Z,25.50
2019-05-23T04:18:56.110Z,24.80
2019-05-23T04:19:57.652Z,17.70
2019-05-23T04:20:54.587Z,14.80
2019-05-23T04:21:55.156Z,13.30
2019-05-23T04:22:54.088Z,11.70
2019-05-23T04:23:55.119Z,11.10
2019-05-23T04:24:53.038Z,11.60
2019-05-23T04:25:55.131Z,13.60
2019-05-23T04:26:55.159Z,13.70
2019-05-23T04:27:55.118Z,12.00
2019-05-23T04:28:53.719Z,9.80
2019-05-23T04:30:53.703Z,9.40
2019-05-23T04:32:07.094Z,7.90
2019-05-23T04:32:53.143Z,8.40
2019-05-23T04:33:53.078Z,6.60
2019-05-23T04:34:53.010Z,6.60
2019-05-23T04:35:55.143Z,6.70
2019-05-23T04:36:54.157Z,8.20
2019-05-23T04:37:56.356Z,6.70
2019-05-23T04:38:56.649Z,8.00
2019-05-23T04:39:54.225Z,6.80
2019-05-23T04:40:56.671Z,7.20
2019-05-23T04:41:55.647Z,6.60
2019-05-23T04:42:54.709Z,6.90
2019-05-23T04:43:53.041Z,7.50
2019-05-23T04:44:54.128Z,6.50
2019-05-23T04:45:54.650Z,9.60
2019-05-23T04:46:55.139Z,10.30
2019-05-23T04:47:55.658Z,8.40
2019-05-23T04:48:53.692Z,8.70
2019-05-23T04:49:54.159Z,9.00
2019-05-23T04:50:54.141Z,8.40
2019-05-23T04:51:54.958Z,8.10
2019-05-23T04:52:54.691Z,11.20
2019-05-23T04:53:54.646Z,10.10
2019-05-23T04:54:55.625Z,8.70
2019-05-23T04:55:54.148Z,10.00
2019-05-23T04:56:53.028Z,9.80
2019-05-23T04:57:56.643Z,7.80
2019-05-23T04:58:52.963Z,7.30
2019-05-23T04:59:53.661Z,9.20
2019-05-23T05:00:53.721Z,10.00
2019-05-23T05:01:55.109Z,8.30
2019-05-23T05:02:53.589Z,8.40
2019-05-23T05:03:55.956Z,8.40
2019-05-23T05:05:08.652Z,8.10
2019-05-23T05:05:52.999Z,7.80
2019-05-23T05:06:54.681Z,8.90
2019-05-23T05:07:53.210Z,9.60
2019-05-23T05:08:53.643Z,10.00
2019-05-23T05:09:53.009Z,10.70
2019-05-23T05:10:54.195Z,10.90
2019-05-23T05:11:56.966Z,9.60
2019-05-23T05:12:55.181Z,9.80
2019-05-23T05:13:54.187Z,9.10
2019-05-23T05:14:53.568Z,10.80
2019-05-23T05:15:52.953Z,9.30
2019-05-23T05:16:54.067Z,8.30
2019-05-23T05:17:52.959Z,7.80
2019-05-23T05:18:55.438Z,8.30
2019-05-23T05:19:52.885Z,8.60
2019-05-23T05:20:54.656Z,9.30
2019-05-23T05:21:57.068Z,8.40
2019-05-23T05:22:54.144Z,8.40
2019-05-23T05:23:57.122Z,8.90
2019-05-23T05:24:56.187Z,7.70
2019-05-23T05:25:53.590Z,9.10
2019-05-23T05:26:53.924Z,9.00
2019-05-23T05:27:53.200Z,7.40
2019-05-23T05:28:54.020Z,9.40
2019-05-23T05:29:55.073Z,7.00
2019-05-23T05:30:53.683Z,6.90
2019-05-23T05:31:54.716Z,6.80
2019-05-23T05:32:53.188Z,7.50
2019-05-23T05:33:53.728Z,6.30
2019-05-23T05:34:52.966Z,6.60
2019-05-23T05:35:54.151Z,7.00
2019-05-23T05:36:56.180Z,6.60
2019-05-23T05:37:53.904Z,6.20
2019-05-23T05:38:54.658Z,6.60
2019-05-23T05:39:55.967Z,7.30
2019-05-23T05:40:53.073Z,7.10
2019-05-23T05:41:53.729Z,6.30
2019-05-23T05:42:53.684Z,6.10
2019-05-23T05:43:55.638Z,6.90
2019-05-23T05:44:54.670Z,7.60
2019-05-23T05:45:53.745Z,6.80
2019-05-23T05:46:53.610Z,6.30
2019-05-23T05:47:54.077Z,6.90
2019-05-23T05:48:57.153Z,6.10
2019-05-23T05:49:53.047Z,7.10
2019-05-23T05:50:55.656Z,7.60
2019-05-23T05:51:53.059Z,7.10
2019-05-23T05:52:52.981Z,7.50
2019-05-23T05:53:54.651Z,6.80
2019-05-23T05:54:53.006Z,6.10
2019-05-23T05:55:54.956Z,7.20
2019-05-23T05:56:53.648Z,6.70
2019-05-23T05:57:53.026Z,6.00
2019-05-23T05:58:53.637Z,5.80
2019-05-23T05:59:54.615Z,7.60
2019-05-23T06:00:58.696Z,6.40
2019-05-23T06:01:56.653Z,6.20
2019-05-23T06:03:03.442Z,5.80
2019-05-23T06:03:58.181Z,7.80
2019-05-23T06:04:53.070Z,9.20
2019-05-23T06:05:55.165Z,6.70
2019-05-23T06:06:53.037Z,5.70
2019-05-23T06:07:53.080Z,6.10
2019-05-23T06:08:58.179Z,7.30
2019-05-23T06:09:53.051Z,5.90
2019-05-23T06:10:56.170Z,6.00
2019-05-23T06:11:54.154Z,6.10
2019-05-23T06:12:53.674Z,5.30
2019-05-23T06:13:57.165Z,5.90
2019-05-23T06:14:53.119Z,6.30
2019-05-23T06:16:08.645Z,5.90
2019-05-23T06:16:53.752Z,5.70
2019-05-23T06:17:54.168Z,5.40
2019-05-23T06:18:58.221Z,6.50
2019-05-23T06:21:01.241Z,6.00
2019-05-23T06:21:53.778Z,5.90
2019-05-23T06:22:53.650Z,6.10
2019-05-23T06:23:53.301Z,5.70
2019-05-23T06:24:55.247Z,5.70
2019-05-23T06:25:53.105Z,5.80
2019-05-23T06:27:19.168Z,5.90
2019-05-23T06:27:53.117Z,6.20
2019-05-23T06:28:53.336Z,5.80
2019-05-23T06:29:55.115Z,7.30
2019-05-23T06:30:55.173Z,5.30
2019-05-23T06:31:53.953Z,5.80
2019-05-23T06:32:53.737Z,5.60
2019-05-23T06:33:55.119Z,6.30
2019-05-23T06:34:54.124Z,5.80
2019-05-23T06:35:54.787Z,5.70
2019-05-23T06:36:54.045Z,6.40
2019-05-23T06:37:53.903Z,5.40
2019-05-23T06:38:53.390Z,5.80
2019-05-23T06:39:54.222Z,5.80
2019-05-23T06:40:53.198Z,5.10
2019-05-23T06:41:53.146Z,6.40
2019-05-23T06:42:53.153Z,7.50
2019-05-23T06:43:54.906Z,5.90
2019-05-23T06:44:54.640Z,5.90
2019-05-23T06:45:53.914Z,7.80
2019-05-23T06:46:53.176Z,6.40
2019-05-23T06:47:55.209Z,6.70
2019-05-23T06:48:53.175Z,6.20
2019-05-23T06:49:53.419Z,6.00
2019-05-23T06:50:53.219Z,6.10
2019-05-23T06:51:54.248Z,5.90
2019-05-23T06:52:54.769Z,6.00
2019-05-23T06:53:55.135Z,6.60
2019-05-23T06:54:54.679Z,6.10
2019-05-23T06:56:02.161Z,6.70
2019-05-23T06:56:56.179Z,6.20
2019-05-23T06:57:54.136Z,7.10
2019-05-23T06:58:54.244Z,6.20
2019-05-23T06:59:53.407Z,6.70
2019-05-23T07:00:55.185Z,6.40
2019-05-23T07:01:54.725Z,7.10
2019-05-23T07:02:54.170Z,7.30
2019-05-23T07:03:57.209Z,7.10
2019-05-23T07:04:55.667Z,5.70
2019-05-23T07:05:53.234Z,6.40
2019-05-23T07:06:55.681Z,7.10
2019-05-23T07:07:56.711Z,5.80
2019-05-23T07:08:55.183Z,6.20
2019-05-23T07:09:55.647Z,5.70
2019-05-23T07:10:53.300Z,5.60
2019-05-23T07:11:55.738Z,5.60
2019-05-23T07:12:53.885Z,6.30
2019-05-23T07:13:53.277Z,6.20
2019-05-23T07:14:54.656Z,5.70
2019-05-23T07:15:55.698Z,6.20
2019-05-23T07:16:54.234Z,6.60
2019-05-23T07:17:53.305Z,6.20
2019-05-23T07:18:54.760Z,6.30
2019-05-23T07:19:55.174Z,5.80
2019-05-23T07:20:53.346Z,5.80
2019-05-23T07:21:54.343Z,6.10
2019-05-23T07:22:53.282Z,5.80
2019-05-23T07:23:54.177Z,5.90
2019-05-23T07:24:58.453Z,5.40
2019-05-23T07:25:54.748Z,6.60
2019-05-23T07:26:54.688Z,5.60
2019-05-23T07:27:53.524Z,6.40
2019-05-23T07:28:54.192Z,6.00
2019-05-23T07:29:53.592Z,5.50
2019-05-23T07:30:53.346Z,5.40
2019-05-23T07:31:55.688Z,5.70
2019-05-23T07:32:53.361Z,6.10
2019-05-23T07:34:01.648Z,6.20
2019-05-23T07:34:53.520Z,5.90
2019-05-23T07:35:54.181Z,5.80
2019-05-23T07:36:53.425Z,5.50
2019-05-23T07:37:54.761Z,5.60
2019-05-23T07:38:54.094Z,5.20
2019-05-23T07:39:54.256Z,5.80
2019-05-23T07:40:54.215Z,5.70
2019-05-23T07:41:54.758Z,5.40
2019-05-23T07:42:54.224Z,5.40
2019-05-23T07:43:54.179Z,6.20
2019-05-23T07:44:54.185Z,6.20
2019-05-23T07:45:53.577Z,6.50
2019-05-23T07:46:53.450Z,6.10
2019-05-23T07:47:54.264Z,6.70
2019-05-23T07:48:54.262Z,5.80
2019-05-23T07:49:53.485Z,7.10
2019-05-23T07:50:55.199Z,6.50
2019-05-23T07:51:53.525Z,6.70
2019-05-23T07:52:53.507Z,5.90
2019-05-23T07:53:54.305Z,5.60
2019-05-23T07:54:55.633Z,5.20
2019-05-23T07:55:53.744Z,7.00
2019-05-23T07:56:54.274Z,6.80
2019-05-23T07:57:53.620Z,6.00
2019-05-23T07:58:53.633Z,7.00
2019-05-23T07:59:56.689Z,7.00
2019-05-23T08:00:55.160Z,6.10
2019-05-23T08:01:53.575Z,6.40
2019-05-23T08:02:54.660Z,5.90
2019-05-23T08:03:53.582Z,5.80
2019-05-23T08:04:54.726Z,6.20
2019-05-23T08:05:53.783Z,6.60
2019-05-23T08:06:53.563Z,6.00
2019-05-23T08:07:54.462Z,5.40
2019-05-23T08:08:54.713Z,5.90
2019-05-23T08:09:53.643Z,6.00
2019-05-23T08:10:54.699Z,5.80
2019-05-23T08:11:54.821Z,7.20
2019-05-23T08:12:55.701Z,5.90
2019-05-23T08:13:56.166Z,5.90
2019-05-23T08:14:53.728Z,8.10
2019-05-23T08:15:53.875Z,5.40
2019-05-23T08:16:54.755Z,5.50
2019-05-23T08:17:53.690Z,5.70
2019-05-23T08:18:54.662Z,6.10
2019-05-23T08:19:55.181Z,7.60
2019-05-23T08:20:58.156Z,5.80
2019-05-23T08:21:55.153Z,5.70
2019-05-23T08:22:53.715Z,6.60
2019-05-23T08:23:53.722Z,6.10
2019-05-23T08:24:55.704Z,5.90
2019-05-23T08:25:55.202Z,5.80
2019-05-23T08:26:57.172Z,6.30
2019-05-23T08:27:53.737Z,6.30
2019-05-23T08:29:22.252Z,5.30
2019-05-23T08:29:54.773Z,5.80
2019-05-23T08:30:56.175Z,5.70
2019-05-23T08:31:54.696Z,6.00
2019-05-23T08:32:55.611Z,4.60
2019-05-23T08:33:55.636Z,5.20
2019-05-23T08:34:59.155Z,5.00
2019-05-23T08:35:57.219Z,5.30
2019-05-23T08:36:55.675Z,4.70
2019-05-23T08:37:55.708Z,4.50
2019-05-23T08:38:59.171Z,4.50
2019-05-23T08:39:53.826Z,4.50
2019-05-23T08:40:56.701Z,5.10
2019-05-23T08:41:57.801Z,4.10
2019-05-23T08:42:53.847Z,5.00
2019-05-23T08:43:55.702Z,4.30
2019-05-23T08:44:55.227Z,3.70
2019-05-23T08:45:55.522Z,3.40
2019-05-23T08:46:57.105Z,3.80
2019-05-23T08:47:56.183Z,4.40
2019-05-23T08:48:55.269Z,4.00
2019-05-23T08:49:55.760Z,4.00
2019-05-23T08:50:57.173Z,3.60
2019-05-23T08:51:57.182Z,4.60
2019-05-23T08:52:57.700Z,5.00
2019-05-23T08:53:55.197Z,4.70
2019-05-23T08:54:55.618Z,4.90
2019-05-23T08:55:56.750Z,3.60
2019-05-23T08:56:55.770Z,4.10
2019-05-23T08:57:54.060Z,4.00
2019-05-23T08:58:57.690Z,4.20
2019-05-23T08:59:57.234Z,4.30
2019-05-23T09:00:54.892Z,4.50
2019-05-23T09:01:54.288Z,3.50
2019-05-23T09:02:58.451Z,3.70
2019-05-23T09:03:58.719Z,3.70
2019-05-23T09:05:04.670Z,5.20
2019-05-23T09:05:56.197Z,3.40
2019-05-23T09:06:55.308Z,3.70
2019-05-23T09:07:54.122Z,3.60
2019-05-23T09:08:54.799Z,4.10
2019-05-23T09:09:58.682Z,6.10
2019-05-23T09:10:55.310Z,5.20
2019-05-23T09:11:56.246Z,4.00
2019-05-23T09:12:55.300Z,3.90
2019-05-23T09:13:56.711Z,5.40
2019-05-23T09:14:55.212Z,5.30
2019-05-23T09:15:58.722Z,4.60
2019-05-23T09:16:58.849Z,3.00
2019-05-23T09:17:55.226Z,3.40
2019-05-23T09:18:55.673Z,3.90
2019-05-23T09:19:57.725Z,3.50
2019-05-23T09:21:00.186Z,3.70
2019-05-23T09:21:57.840Z,3.90
2019-05-23T09:22:54.941Z,3.30
2019-05-23T09:23:58.260Z,3.20
2019-05-23T09:24:56.135Z,4.20
2019-05-23T09:25:57.228Z,4.10
2019-05-23T09:27:00.761Z,3.70
2019-05-23T09:27:54.969Z,3.10
2019-05-23T09:28:54.936Z,3.40
2019-05-23T09:29:55.717Z,3.60
2019-05-23T09:30:57.794Z,5.00
2019-05-23T09:32:54.492Z,4.00
2019-05-23T09:33:56.687Z,3.70
2019-05-23T09:34:56.696Z,4.40
2019-05-23T09:35:55.293Z,3.60
2019-05-23T09:36:54.792Z,3.40
2019-05-23T09:37:55.538Z,3.20
2019-05-23T09:38:55.793Z,2.90
2019-05-23T09:39:56.215Z,5.20
2019-05-23T09:40:54.653Z,3.10
2019-05-23T09:41:55.785Z,3.30
2019-05-23T09:42:55.487Z,3.50
2019-05-23T09:43:55.780Z,3.90
2019-05-23T09:44:55.503Z,3.00
2019-05-23T09:45:55.500Z,2.90
2019-05-23T09:46:55.724Z,3.40
2019-05-23T09:47:54.868Z,2.70
2019-05-23T09:48:55.737Z,3.70
2019-05-23T09:49:57.714Z,2.80
2019-05-23T09:50:56.697Z,3.20
2019-05-23T09:52:00.784Z,3.20
2019-05-23T09:52:56.044Z,3.10
2019-05-23T09:53:55.809Z,3.40
2019-05-23T09:54:55.613Z,3.00
2019-05-23T09:55:55.843Z,3.80
2019-05-23T09:56:56.813Z,3.30
2019-05-23T09:57:55.176Z,2.60
2019-05-23T09:58:56.305Z,2.80
2019-05-23T09:59:57.015Z,3.80
2019-05-23T10:00:56.224Z,3.40
2019-05-23T10:01:56.749Z,4.00
2019-05-23T10:02:55.159Z,3.40
2019-05-23T10:03:54.989Z,3.10
2019-05-23T10:04:55.019Z,2.70
2019-05-23T10:05:55.516Z,2.20
2019-05-23T10:06:55.016Z,2.60
2019-05-23T10:07:57.219Z,3.70
2019-05-23T10:08:55.790Z,2.30
2019-05-23T10:09:55.019Z,3.10
2019-05-23T10:10:56.027Z,2.80
2019-05-23T10:11:55.966Z,3.10
2019-05-23T10:12:57.823Z,2.70
2019-05-23T10:13:55.160Z,2.10
2019-05-23T10:14:55.184Z,3.20
2019-05-23T10:15:55.168Z,3.90
2019-05-23T10:16:55.183Z,2.70
2019-05-23T10:17:55.395Z,1.80
2019-05-23T10:18:55.190Z,2.20
2019-05-23T10:19:56.426Z,2.20
2019-05-23T10:20:56.253Z,2.30
2019-05-23T10:21:56.669Z,2.60
2019-05-23T10:22:56.240Z,2.40
2019-05-23T10:23:55.237Z,2.20
2019-05-23T10:24:55.833Z,2.40
2019-05-23T10:25:57.233Z,2.30
2019-05-23T10:26:57.768Z,2.20
2019-05-23T10:27:55.896Z,2.30
2019-05-23T10:28:55.385Z,1.80
2019-05-23T10:29:55.364Z,1.80
2019-05-23T10:30:56.821Z,3.10
2019-05-23T10:31:55.390Z,2.80
2019-05-23T10:32:56.306Z,3.90
2019-05-23T10:33:55.410Z,2.40
2019-05-23T10:34:56.661Z,3.20
2019-05-23T10:36:00.620Z,3.10
2019-05-23T10:36:57.254Z,3.50
2019-05-23T10:37:56.415Z,2.50
2019-05-23T10:38:56.037Z,2.70
2019-05-23T10:39:55.544Z,2.50
2019-05-23T10:40:58.761Z,2.50
2019-05-23T10:41:56.263Z,2.80
2019-05-23T10:42:55.734Z,3.70
2019-05-23T10:43:55.638Z,4.20
2019-05-23T10:44:56.234Z,3.80
2019-05-23T10:45:56.750Z,3.50
2019-05-23T10:46:56.245Z,3.20
2019-05-23T10:47:56.711Z,3.20
2019-05-23T10:48:55.700Z,6.70
2019-05-23T10:49:58.263Z,3.00
2019-05-23T10:51:00.532Z,2.80
2019-05-23T10:51:55.724Z,2.10
2019-05-23T10:52:58.228Z,2.90
2019-05-23T10:53:57.869Z,2.00
2019-05-23T10:54:57.231Z,2.20
2019-05-23T10:55:56.564Z,2.20
2019-05-23T10:56:58.264Z,2.00
2019-05-23T10:57:58.262Z,2.40
2019-05-23T10:58:55.979Z,2.60
2019-05-23T10:59:55.920Z,2.30
2019-05-23T11:00:55.874Z,2.60
2019-05-23T11:01:55.877Z,2.10
2019-05-23T11:02:56.814Z,2.70
2019-05-23T11:03:57.826Z,3.60
2019-05-23T11:04:56.859Z,2.60
2019-05-23T11:05:58.723Z,3.40
2019-05-23T11:06:56.761Z,2.60
2019-05-23T11:07:55.931Z,3.80
2019-05-23T11:08:56.254Z,2.80
2019-05-23T11:09:56.753Z,2.40
2019-05-23T11:10:56.761Z,2.50
2019-05-23T11:11:58.252Z,3.70
2019-05-23T11:12:56.722Z,12.60
2019-05-23T11:13:56.181Z,11.10
2019-05-23T11:14:57.248Z,8.80
2019-05-23T11:15:56.106Z,3.80
2019-05-23T11:16:59.054Z,10.20
2019-05-23T11:17:56.089Z,4.70
2019-05-23T11:18:57.737Z,3.10
2019-05-23T11:19:56.773Z,4.10
2019-05-23T11:20:56.117Z,3.70
2019-05-23T11:21:56.122Z,3.80
2019-05-23T11:22:57.273Z,3.30
2019-05-23T11:23:59.251Z,3.40
2019-05-23T11:24:57.261Z,3.10
2019-05-23T11:26:00.647Z,3.10
2019-05-23T11:26:58.246Z,11.60
2019-05-23T11:27:56.324Z,29.90
2019-05-23T11:28:57.183Z,3.90
2019-05-23T11:29:56.987Z,2.50
2019-05-23T11:30:59.453Z,2.50
2019-05-23T11:31:56.296Z,2.90
2019-05-23T11:32:56.761Z,2.50
2019-05-23T11:33:56.511Z,2.00
2019-05-23T11:34:58.811Z,2.80
2019-05-23T11:35:57.025Z,1.70
2019-05-23T11:36:56.422Z,4.10
2019-05-23T11:38:02.798Z,1.30
2019-05-23T11:38:56.748Z,1.80
2019-05-23T11:39:56.309Z,2.20
2019-05-23T11:40:57.263Z,1.80
2019-05-23T11:41:57.809Z,1.60
2019-05-23T11:42:57.382Z,2.60
2019-05-23T11:43:57.577Z,2.00
2019-05-23T11:44:56.452Z,1.80
2019-05-23T11:45:58.781Z,1.50
2019-05-23T11:46:56.484Z,1.60
2019-05-23T11:47:57.770Z,2.40
2019-05-23T11:48:57.214Z,1.90
2019-05-23T11:49:58.276Z,1.70
2019-05-23T11:50:58.868Z,2.50
2019-05-23T11:51:57.774Z,1.50
2019-05-23T11:52:56.622Z,2.70
2019-05-23T11:54:07.454Z,1.70
2019-05-23T11:54:58.369Z,3.80
2019-05-23T11:56:00.790Z,2.80
2019-05-23T11:57:00.412Z,2.00
2019-05-23T11:58:02.288Z,3.30
2019-05-23T11:59:01.746Z,2.60
2019-05-23T11:59:56.745Z,2.40
2019-05-23T12:00:57.299Z,1.90
2019-05-23T12:01:57.848Z,2.40
2019-05-23T12:02:56.775Z,2.90
2019-05-23T12:03:56.798Z,1.90
2019-05-23T12:04:57.551Z,2.60
2019-05-23T12:05:56.785Z,2.50
2019-05-23T12:06:57.254Z,3.50
2019-05-23T12:07:58.284Z,2.20
2019-05-23T12:08:57.732Z,2.40
2019-05-23T12:09:59.872Z,2.50
2019-05-23T12:10:57.793Z,3.30
2019-05-23T12:11:56.939Z,1.90
2019-05-23T12:13:00.263Z,2.00
2019-05-23T12:14:01.784Z,3.70
2019-05-23T12:14:59.765Z,2.40
2019-05-23T12:15:57.567Z,2.20
2019-05-23T12:16:56.986Z,2.00
2019-05-23T12:17:58.758Z,3.30
2019-05-23T12:19:01.299Z,2.80
2019-05-23T12:19:58.233Z,2.30
2019-05-23T12:20:59.748Z,2.30
2019-05-23T12:21:57.202Z,2.40
2019-05-23T12:22:57.790Z,2.50
2019-05-23T12:23:57.849Z,3.00
2019-05-23T12:24:57.330Z,1.80
2019-05-23T12:25:58.311Z,2.20
2019-05-23T12:27:00.097Z,1.70
2019-05-23T12:27:57.820Z,2.40
2019-05-23T12:28:57.139Z,2.20
2019-05-23T12:29:58.286Z,1.70
2019-05-23T12:30:57.256Z,2.20
2019-05-23T12:31:57.265Z,1.70
2019-05-23T12:32:58.063Z,2.30
2019-05-23T12:34:00.808Z,2.60
2019-05-23T12:35:10.311Z,2.40
2019-05-23T12:35:57.301Z,2.00
2019-05-23T12:37:17.101Z,2.60
2019-05-23T12:37:57.300Z,1.90
2019-05-23T12:39:02.275Z,1.90
2019-05-23T12:39:58.799Z,1.70
2019-05-23T12:40:59.274Z,2.50
2019-05-23T12:41:59.299Z,2.60
2019-05-23T12:42:58.374Z,2.20
2019-05-23T12:43:59.312Z,3.00
2019-05-23T12:44:58.298Z,2.60
2019-05-23T12:46:01.300Z,1.70
2019-05-23T12:46:58.309Z,3.70
2019-05-23T12:48:00.800Z,2.20
2019-05-23T12:48:58.298Z,2.30
2019-05-23T12:49:57.585Z,2.10
2019-05-23T12:50:58.308Z,2.10
2019-05-23T12:51:57.611Z,2.20
2019-05-23T12:52:57.620Z,2.40
2019-05-23T12:54:00.430Z,2.60
2019-05-23T12:54:58.539Z,2.20
2019-05-23T12:55:59.778Z,2.40
2019-05-23T12:57:00.603Z,1.50
2019-05-23T12:57:59.814Z,1.70
2019-05-23T12:58:58.816Z,2.60
2019-05-23T12:59:58.418Z,3.90
2019-05-23T13:01:03.803Z,1.50
2019-05-23T13:02:02.298Z,2.20
2019-05-23T13:03:05.300Z,1.80
2019-05-23T13:03:58.730Z,2.80
2019-05-23T13:04:58.813Z,2.90
2019-05-23T13:06:00.305Z,2.00
2019-05-23T13:06:58.590Z,2.20
2019-05-23T13:07:58.858Z,3.70
2019-05-23T13:08:58.627Z,3.50
2019-05-23T13:09:59.224Z,2.70
2019-05-23T13:11:00.928Z,2.00
2019-05-23T13:11:58.032Z,2.10
2019-05-23T13:12:58.862Z,2.30
2019-05-23T13:13:59.305Z,2.00
2019-05-23T13:14:59.824Z,3.30